Terminal Aerodrome Forecast
Issued by NWS

Home | Current Version | Previous Version | Text Only | Print | Product List | Glossary On
Versions: 1 2 3 4 5 6 7 8 9 10 11 12 13 14 15
000
FTUS45 KCYS 241123
TAFLAR
TAF
KLAR 241123Z 2412/2512 16009KT P6SM SKC
     FM241900 27010KT P6SM VCTS BKN090CB
     FM250200 17007KT P6SM BKN110=

USA.gov is the U.S. government's official web portal to all federal, state and local government web resources and services.